Time;durP1;ratioP1;P1;durP2;ratioP2;P2;SDS_P1;SDS_P2;PMS_P1;PMS_P2;Temp;Humidity;BMP_temperature;BMP_pressure;BME280_temperature;BME280_humidity;BME280_pressure;Samples;Min_cycle;Max_cycle;Signal;HPM_P1;HPM_P2
2022/03/21 00:00:55;;;;;;;14.18;9.18;;;;;;;28.59;67.81;100826.75;5072671;28;69945;-38
2022/03/21 00:03:31;;;;;;;10.25;9.13;;;;;;;28.71;68.23;100849.38;5079257;28;65647;-37
2022/03/21 00:06:03;;;;;;;14.88;7.90;;;;;;;29.06;69.15;100895.13;5070301;28;70277;-37
2022/03/21 00:08:34;;;;;;;8.57;7.87;;;;;;;29.20;69.50;100904.06;5069167;28;66002;-37
2022/03/21 00:11:06;;;;;;;9.07;7.82;;;;;;;29.27;69.82;100913.81;5070933;28;70102;-36
2022/03/21 00:13:38;;;;;;;8.40;7.40;;;;;;;29.33;70.36;100910.28;5071779;28;66469;-37
2022/03/21 00:16:08;;;;;;;14.05;8.68;;;;;;;29.36;68.93;100909.88;5076353;27;69880;-36
2022/03/21 00:18:39;;;;;;;13.43;9.15;;;;;;;29.42;70.33;100927.13;5069161;28;66918;-38
2022/03/21 00:21:10;;;;;;;10.45;8.35;;;;;;;29.37;69.42;100898.03;5078005;28;70156;-37
2022/03/21 00:23:41;;;;;;;11.38;7.10;;;;;;;29.69;64.20;100919.00;5068535;28;65570;-36
2022/03/21 00:26:11;;;;;;;13.65;5.82;;;;;;;29.79;62.70;100920.22;5075401;28;70574;-37
2022/03/21 00:28:42;;;;;;;6.13;5.55;;;;;;;29.89;62.28;100922.47;5066026;28;66081;-38
2022/03/21 00:31:13;;;;;;;7.00;5.85;;;;;;;30.01;62.35;100925.38;5070749;28;70031;-38
2022/03/21 00:33:46;;;;;;;10.18;6.47;;;;;;;30.10;62.31;100936.78;5077256;28;66453;-37
2022/03/21 00:36:17;;;;;;;7.57;5.72;;;;;;;30.11;61.90;100925.72;5074826;28;69898;-37
2022/03/21 00:39:07;;;;;;;14.80;6.22;;;;;;;30.25;61.41;100937.38;5071770;28;65772;-38
2022/03/21 00:41:40;;;;;;;5.88;5.40;;;;;;;30.09;61.79;100905.34;5069533;28;68981;-37
2022/03/21 00:44:11;;;;;;;5.65;4.97;;;;;;;30.40;61.64;100939.81;5071048;28;66047;-39
2022/03/21 00:46:42;;;;;;;11.77;6.07;;;;;;;30.47;60.99;100954.13;5078174;28;70030;-38
2022/03/21 00:49:13;;;;;;;5.72;5.05;;;;;;;30.50;61.09;100945.56;5079039;28;65511;-38
2022/03/21 00:51:44;;;;;;;6.10;5.50;;;;;;;30.56;61.55;100950.13;5074505;27;70342;-38
2022/03/21 00:54:15;;;;;;;8.52;5.43;;;;;;;30.62;61.51;100953.81;5074370;28;65831;-38
2022/03/21 00:56:45;;;;;;;5.60;5.20;;;;;;;30.66;61.36;100966.72;5068401;28;70231;-37
2022/03/21 00:59:16;;;;;;;7.63;5.45;;;;;;;30.67;61.13;100954.88;5075633;28;66533;-37
2022/03/21 01:01:47;;;;;;;5.05;4.65;;;;;;;30.75;61.16;100958.34;5068534;28;70011;-38
2022/03/21 01:04:18;;;;;;;5.50;5.00;;;;;;;30.76;61.14;100955.44;5070552;28;66172;-38
2022/03/21 01:06:49;;;;;;;5.78;5.28;;;;;;;30.80;60.67;100961.28;5072904;28;70106;-37
2022/03/21 01:09:19;;;;;;;7.72;4.82;;;;;;;30.83;60.40;100963.53;5064235;27;65347;-37
2022/03/21 01:11:50;;;;;;;4.78;4.35;;;;;;;30.88;60.03;100979.97;5072142;28;69665;-37
2022/03/21 01:14:21;;;;;;;4.97;4.57;;;;;;;30.91;59.71;100982.25;5070478;27;66235;-37
2022/03/21 01:16:55;;;;;;;5.35;4.95;;;;;;;30.95;60.01;100975.31;5072146;28;70257;-37
2022/03/21 01:19:29;;;;;;;6.28;4.80;;;;;;;30.97;59.84;100978.66;5063772;28;65622;-37
2022/03/21 01:22:00;;;;;;;4.75;4.45;;;;;;;30.97;59.37;100977.81;5070936;27;70133;-38
2022/03/21 01:24:31;;;;;;;4.82;4.53;;;;;;;31.02;59.44;100981.53;5073279;28;66034;-37
2022/03/21 01:27:06;;;;;;;4.50;3.95;;;;;;;30.75;59.41;100931.28;5076774;27;69879;-38
2022/03/21 01:29:37;;;;;;;6.88;4.72;;;;;;;31.09;59.31;100985.06;5070607;28;65281;-37
2022/03/21 01:32:08;;;;;;;5.55;4.93;;;;;;;31.12;59.33;100981.91;5076311;28;70022;-37
2022/03/21 01:34:38;;;;;;;5.07;4.57;;;;;;;31.14;58.29;100989.78;5072442;28;66797;-36
2022/03/21 01:37:09;;;;;;;5.00;4.60;;;;;;;31.11;58.57;100982.94;5069855;28;69797;-36
2022/03/21 01:39:40;;;;;;;4.78;4.30;;;;;;;31.19;58.83;100998.09;5067758;28;66590;-36
2022/03/21 01:42:10;;;;;;;5.60;4.25;;;;;;;31.21;57.72;100995.19;5068567;28;69391;-37
2022/03/21 01:44:42;;;;;;;4.28;3.90;;;;;;;31.25;57.79;100997.22;5077534;28;67562;-37
2022/03/21 01:47:13;;;;;;;5.05;4.60;;;;;;;31.28;57.95;101009.50;5066702;27;71003;-37
2022/03/21 01:49:44;;;;;;;4.60;4.30;;;;;;;31.30;57.52;101010.09;5069315;28;66191;-37
2022/03/21 01:52:15;;;;;;;4.05;3.83;;;;;;;31.34;57.34;101016.75;5061410;27;69834;-36
2022/03/21 01:57:35;;;;;;;4.55;4.15;;;;;;;31.35;57.41;101024.66;5067921;28;70007;-37
2022/03/21 02:00:07;;;;;;;4.38;3.97;;;;;;;31.41;57.20;101022.97;5065801;28;66391;-36
2022/03/21 02:02:40;;;;;;;4.55;4.25;;;;;;;31.24;56.70;100983.91;5069040;27;71003;-37
2022/03/21 02:05:11;;;;;;;4.40;4.10;;;;;;;31.37;56.68;101000.06;5072088;28;66011;-37
2022/03/21 02:07:42;;;;;;;3.95;3.65;;;;;;;31.50;56.24;101010.81;5064856;27;70504;-36
2022/03/21 02:10:13;;;;;;;4.38;3.65;;;;;;;31.52;56.32;101008.72;5070679;28;66515;-37
2022/03/21 02:12:44;;;;;;;3.38;3.17;;;;;;;31.55;56.64;101002.00;5073479;28;70494;-37
2022/03/21 02:15:15;;;;;;;;;;;;;;;31.26;57.23;101014.28;5049535;27;65865;-37
2022/03/21 02:17:47;;;;;;;3.60;3.30;;;;;;;31.58;56.87;101015.94;5077864;27;70273;-37
2022/03/21 02:20:19;;;;;;;4.10;3.75;;;;;;;31.64;56.12;101016.13;5054563;28;65981;-35
2022/03/21 02:23:15;;;;;;;3.63;3.33;;;;;;;31.23;56.41;100950.56;5068235;27;70294;-37
2022/03/21 02:25:47;;;;;;;4.85;3.33;;;;;;;31.72;55.76;101018.53;5071860;28;65393;-37
2022/03/21 02:28:18;;;;;;;3.60;3.38;;;;;;;31.61;55.98;100996.53;5061217;27;69424;-38
2022/03/21 02:30:49;;;;;;;3.50;3.20;;;;;;;31.75;55.68;101015.38;5071481;28;66104;-37
2022/03/21 02:33:21;;;;;;;3.50;3.20;;;;;;;31.78;55.44;101026.59;5070528;27;69804;-36
2022/03/21 02:35:52;;;;;;;;;;;;;;;31.50;56.13;101026.25;5068903;28;66247;-36
2022/03/21 02:38:25;;;;;;;3.05;2.85;;;;;;;31.31;55.17;100941.28;5071699;28;70129;-36
2022/03/21 02:40:56;;;;;;;3.05;2.85;;;;;;;31.88;55.00;101025.28;5074775;28;66546;-36
2022/03/21 02:43:28;;;;;;;3.40;3.10;;;;;;;31.92;55.30;101034.66;5069054;28;69867;-37
2022/03/21 02:46:05;;;;;;;;;;;;;;;31.60;55.97;101032.84;5063616;28;66276;-37
2022/03/21 02:48:36;;;;;;;3.10;2.80;;;;;;;31.91;55.47;101024.84;5064365;27;70737;-37
2022/03/21 02:51:10;;;;;;;2.97;2.78;;;;;;;31.94;55.02;101021.72;5053344;28;66766;-37
2022/03/21 02:53:42;;;;;;;3.72;3.38;;;;;;;31.99;54.76;101028.13;5054404;28;69466;-37
2022/03/21 02:56:13;;;;;;;3.72;3.42;;;;;;;31.99;54.52;101021.88;5058444;28;65288;-37
2022/03/21 02:58:44;;;;;;;3.17;2.95;;;;;;;32.04;54.31;101025.56;5050337;28;70235;-37
2022/03/21 03:01:16;;;;;;;3.67;2.83;;;;;;;32.05;54.56;101024.50;5048054;28;65410;-38
2022/03/21 03:03:47;;;;;;;3.22;2.95;;;;;;;32.04;54.74;101022.84;5057446;28;69098;-38
2022/03/21 03:06:18;;;;;;;3.55;3.25;;;;;;;32.11;54.29;101038.22;5048348;28;66244;-37
2022/03/21 03:08:49;;;;;;;3.57;2.70;;;;;;;32.05;54.43;101035.34;5048271;28;70034;-37
2022/03/21 03:11:20;;;;;;;3.17;2.88;;;;;;;32.09;54.23;101021.34;5051842;28;65610;-37
2022/03/21 03:13:50;;;;;;;2.85;2.65;;;;;;;32.10;54.06;101025.72;5050243;28;69642;-38
2022/03/21 03:16:21;;;;;;;2.70;2.50;;;;;;;32.15;54.09;101034.00;5054660;28;65884;-37
2022/03/21 03:18:52;;;;;;;2.90;2.70;;;;;;;32.21;54.03;101043.97;5047488;28;69991;-38
2022/03/21 03:21:25;;;;;;;2.85;2.65;;;;;;;31.91;54.14;100990.44;5055690;28;66364;-37
2022/03/21 03:23:59;;;;;;;3.05;2.78;;;;;;;32.28;54.07;101047.44;5056663;28;69964;-37
2022/03/21 03:26:29;;;;;;;3.00;2.80;;;;;;;32.26;54.00;101036.81;5052146;28;66135;-37
2022/03/21 03:29:01;;;;;;;2.77;2.33;;;;;;;32.26;53.78;101035.97;5047008;28;70676;-38
2022/03/21 03:31:33;;;;;;;2.67;2.47;;;;;;;32.26;53.85;101031.38;5053544;28;65798;-37
2022/03/21 03:34:04;;;;;;;4.35;2.63;;;;;;;32.29;53.73;101035.53;5042797;28;70864;-36
2022/03/21 03:36:36;;;;;;;2.67;2.47;;;;;;;32.24;53.80;101027.22;5047913;28;65867;-38
2022/03/21 03:39:07;;;;;;;2.92;2.72;;;;;;;32.25;53.92;101018.03;5025699;28;69756;-37
2022/03/21 03:41:38;;;;;;;2.95;2.75;;;;;;;32.21;53.96;101022.25;5038032;28;66491;-36
2022/03/21 03:44:10;;;;;;;2.77;2.57;;;;;;;32.26;54.11;101031.38;5053179;28;69942;-37
2022/03/21 03:46:41;;;;;;;3.90;2.35;;;;;;;32.31;53.78;101036.13;5048075;28;65907;-38
2022/03/21 03:49:11;;;;;;;2.40;2.20;;;;;;;32.36;53.47;101019.97;5056700;28;70231;-40
2022/03/21 03:51:42;;;;;;;2.75;2.50;;;;;;;32.36;53.88;101011.00;5068744;28;65816;-37
2022/03/21 03:54:13;;;;;;;2.47;2.28;;;;;;;32.39;53.71;101008.66;5067652;28;69351;-37
2022/03/21 03:56:44;;;;;;;2.40;2.20;;;;;;;32.41;53.44;100992.97;5076246;28;65666;-36
2022/03/21 03:59:15;;;;;;;2.70;2.37;;;;;;;32.42;53.48;101000.06;5067932;28;70116;-38
2022/03/21 04:01:46;;;;;;;2.65;2.45;;;;;;;32.44;53.47;101000.66;5075112;28;66182;-38
2022/03/21 04:04:19;;;;;;;2.47;2.28;;;;;;;32.46;53.24;100995.88;5057018;28;71698;-36
2022/03/21 04:06:49;;;;;;;2.67;2.47;;;;;;;32.42;53.14;100986.47;5068013;28;66450;-37
2022/03/21 04:09:20;;;;;;;2.47;2.28;;;;;;;32.49;53.26;100990.00;5075882;27;69045;-37
2022/03/21 04:11:51;;;;;;;2.63;2.17;;;;;;;32.48;53.22;100985.63;5070603;27;66384;-37
2022/03/21 04:14:22;;;;;;;3.50;2.03;;;;;;;32.54;53.12;100988.47;5064974;28;69287;-36
2022/03/21 04:16:52;;;;;;;4.30;1.75;;;;;;;32.55;52.82;100973.84;5076150;27;66347;-37
2022/03/21 04:19:23;;;;;;;2.65;2.10;;;;;;;32.28;53.30;100930.72;5068206;27;69580;-37
2022/03/21 04:21:54;;;;;;;2.13;2.00;;;;;;;32.60;52.87;100960.41;5065736;28;65425;-38
2022/03/21 04:24:24;;;;;;;3.35;2.25;;;;;;;32.45;52.90;100939.88;5071197;28;69300;-37
2022/03/21 04:26:56;;;;;;;2.42;2.22;;;;;;;32.60;52.83;100960.41;5072144;27;65521;-38
2022/03/21 04:29:29;;;;;;;3.05;2.22;;;;;;;32.66;52.89;100960.31;5063965;28;70181;-37
2022/03/21 04:32:01;;;;;;;3.53;2.53;;;;;;;32.69;52.51;100950.88;5068886;28;66267;-37
2022/03/21 04:34:31;;;;;;;4.55;2.08;;;;;;;32.67;52.93;100945.66;5067077;28;69079;-37
2022/03/21 04:37:03;;;;;;;3.77;2.10;;;;;;;32.68;52.71;100950.03;5071874;28;65712;-37
2022/03/21 04:39:33;;;;;;;6.70;2.13;;;;;;;32.63;52.79;100938.22;5069246;28;69751;-37
2022/03/21 04:42:04;;;;;;;2.45;2.10;;;;;;;32.74;52.66;100945.56;5076487;27;66816;-37
2022/03/21 04:44:36;;;;;;;3.15;2.13;;;;;;;32.66;52.49;100935.03;5057876;28;68864;-37
2022/03/21 04:47:07;;;;;;;2.50;2.30;;;;;;;32.80;52.47;100941.94;5070710;28;66122;-36
2022/03/21 04:49:38;;;;;;;2.58;2.35;;;;;;;32.80;52.46;100943.81;5072739;28;69772;-36
2022/03/21 04:52:09;;;;;;;3.60;3.10;;;;;;;32.80;52.37;100928.34;5065348;28;65857;-38
2022/03/21 04:54:40;;;;;;;2.53;2.30;;;;;;;32.87;52.46;100934.47;5076930;27;69355;-38
2022/03/21 04:57:12;;;;;;;2.20;2.00;;;;;;;32.87;52.46;100931.75;5070757;28;64873;-38
2022/03/21 04:59:42;;;;;;;4.13;2.10;;;;;;;32.89;52.32;100929.66;5069630;28;69668;-37
2022/03/21 05:02:13;;;;;;;2.40;2.17;;;;;;;32.88;52.36;100930.72;5067432;27;66228;-37
2022/03/21 05:04:44;;;;;;;2.88;2.33;;;;;;;32.92;52.29;100921.03;5077191;28;70793;-37
2022/03/21 05:07:19;;;;;;;3.88;2.38;;;;;;;32.93;52.08;100917.28;5053478;28;64974;-37
2022/03/21 05:09:49;;;;;;;2.22;2.03;;;;;;;32.85;51.84;100904.03;5075646;27;69192;-37
2022/03/21 05:12:20;;;;;;;2.35;2.15;;;;;;;32.92;51.85;100891.16;5070021;28;66425;-37
2022/03/21 05:14:51;;;;;;;2.28;1.90;;;;;;;33.00;52.12;100900.88;5067136;28;69522;-39
2022/03/21 05:17:22;;;;;;;2.28;2.10;;;;;;;32.81;52.05;100856.63;5077559;27;66206;-37
2022/03/21 05:19:52;;;;;;;1.95;1.80;;;;;;;33.03;51.94;100886.00;5069175;28;70151;-37
2022/03/21 05:22:23;;;;;;;1.95;1.85;;;;;;;33.05;52.13;100886.59;5067168;27;65061;-36
2022/03/21 05:36:11;;;;;;;1.88;1.60;;;;;;;33.11;51.93;100842.16;5069070;28;70376;-38
2022/03/21 05:38:41;;;;;;;3.60;1.90;;;;;;;33.12;51.93;100827.50;5073580;28;66186;-37
2022/03/21 05:41:12;;;;;;;2.47;1.67;;;;;;;33.17;51.79;100824.09;5064354;28;70304;-37
2022/03/21 05:43:43;;;;;;;2.35;1.75;;;;;;;33.13;51.88;100815.59;5065424;28;67065;-37
2022/03/21 05:46:15;;;;;;;1.67;1.52;;;;;;;33.20;51.77;100813.56;5070136;28;69697;-37
2022/03/21 05:48:59;;;;;;;2.85;1.65;;;;;;;33.20;51.93;100797.25;5075262;27;66260;-36
2022/03/21 05:51:32;;;;;;;1.95;1.70;;;;;;;32.92;51.73;100736.28;5064959;28;69879;-37
2022/03/21 05:54:08;;;;;;;1.60;1.30;;;;;;;33.15;51.75;100773.50;5076702;28;66573;-37
2022/03/21 05:56:41;;;;;;;3.03;1.80;;;;;;;33.15;51.38;100767.22;5071008;28;70479;-37
2022/03/21 06:02:01;;;;;;;3.22;2.13;;;;;;;33.29;51.55;100757.78;5076121;28;70100;-37
2022/03/21 06:04:33;;;;;;;1.60;1.50;;;;;;;33.28;51.59;100750.66;5074595;28;66051;-37
2022/03/21 06:07:04;;;;;;;2.20;1.60;;;;;;;33.24;51.73;100727.75;5078729;28;71905;-37
2022/03/21 06:09:34;;;;;;;1.92;1.55;;;;;;;33.31;51.59;100727.63;5064294;28;66577;-37
2022/03/21 06:12:06;;;;;;;2.10;1.73;;;;;;;33.38;51.28;100736.47;5072861;28;70243;-38
2022/03/21 06:14:37;;;;;;;1.73;1.63;;;;;;;33.40;51.36;100730.78;5068991;28;65752;-37
2022/03/21 06:17:07;;;;;;;2.22;1.30;;;;;;;33.46;51.23;100724.38;5075397;27;70257;-37
2022/03/21 06:19:38;;;;;;;1.30;1.20;;;;;;;33.47;51.43;100717.88;5070467;28;66208;-36
2022/03/21 06:22:09;;;;;;;1.80;1.27;;;;;;;33.48;51.15;100711.34;5073963;27;70031;-37
2022/03/21 06:24:40;;;;;;;1.40;1.30;;;;;;;33.52;51.13;100712.53;5074112;28;66737;-38
2022/03/21 06:27:11;;;;;;;1.75;1.58;;;;;;;33.55;50.79;100706.66;5067364;28;70146;-37
2022/03/21 06:29:42;;;;;;;2.08;1.35;;;;;;;33.57;50.93;100697.19;5065770;27;66090;-37
2022/03/21 06:32:14;;;;;;;1.63;1.30;;;;;;;33.61;50.85;100689.34;5071284;28;69339;-38
2022/03/21 06:34:45;;;;;;;1.53;1.30;;;;;;;33.63;51.18;100687.22;5071648;28;66202;-37
2022/03/21 06:37:16;;;;;;;2.53;1.42;;;;;;;33.63;50.81;100681.78;5075466;28;70263;-37
2022/03/21 06:39:46;;;;;;;1.90;1.70;;;;;;;33.61;50.71;100656.72;5071499;28;65707;-37
2022/03/21 06:42:21;;;;;;;1.52;1.42;;;;;;;33.72;50.68;100669.44;5067617;27;68591;-37
2022/03/21 06:44:53;;;;;;;1.65;1.55;;;;;;;33.77;50.52;100664.06;5074164;27;66111;-37
2022/03/21 06:47:23;;;;;;;1.58;1.27;;;;;;;33.77;50.67;100655.91;5071164;28;70063;-38
2022/03/21 06:49:54;;;;;;;1.63;1.52;;;;;;;33.83;50.79;100653.28;5072156;27;66328;-37
2022/03/21 06:52:25;;;;;;;2.20;1.80;;;;;;;33.88;50.43;100656.06;5070631;28;69389;-37
2022/03/21 06:54:56;;;;;;;3.08;1.77;;;;;;;33.89;50.35;100644.13;5068639;28;65162;-39
2022/03/21 06:57:27;;;;;;;2.22;1.98;;;;;;;33.94;50.51;100644.22;5072089;27;68110;-37
2022/03/21 06:59:58;;;;;;;1.45;1.35;;;;;;;33.93;50.39;100634.41;5077682;28;66480;-38
2022/03/21 07:02:29;;;;;;;2.05;1.73;;;;;;;33.95;50.44;100622.19;5070528;27;70513;-37
2022/03/21 07:05:00;;;;;;;;;;;;;;;33.71;50.62;100629.69;5067934;28;66345;-38
2022/03/21 07:07:31;;;;;;;1.92;1.75;;;;;;;34.01;50.28;100618.47;5067720;28;69795;-37
2022/03/21 07:10:02;;;;;;;2.20;2.00;;;;;;;34.08;50.52;100612.09;5075348;28;66273;-37
2022/03/21 07:12:38;;;;;;;2.95;1.88;;;;;;;34.10;50.17;100615.38;5064081;27;69965;-37
2022/03/21 07:15:09;;;;;;;2.33;2.08;;;;;;;34.15;50.09;100613.53;5075200;27;65328;-38
2022/03/21 07:17:43;;;;;;;4.60;1.60;;;;;;;34.20;49.93;100616.34;5067499;27;71154;-38
2022/03/21 07:20:14;;;;;;;2.20;2.00;;;;;;;34.18;50.06;100596.72;5069157;28;66070;-38
2022/03/21 07:22:44;;;;;;;2.13;1.95;;;;;;;34.28;49.80;100603.41;5061870;28;69987;-38
2022/03/21 07:25:16;;;;;;;1.67;1.55;;;;;;;34.36;49.54;100602.97;5076216;28;65367;-38
2022/03/21 07:27:47;;;;;;;1.85;1.58;;;;;;;34.28;49.51;100597.97;5070422;27;69924;-36
2022/03/21 07:30:19;;;;;;;2.50;1.83;;;;;;;34.42;49.58;100604.69;5062757;28;66545;-37
2022/03/21 07:32:50;;;;;;;3.53;1.92;;;;;;;34.50;49.27;100612.44;5062068;28;69959;-37
2022/03/21 07:35:21;;;;;;;1.83;1.70;;;;;;;34.54;49.44;100615.47;5078251;28;65385;-38
2022/03/21 07:37:57;;;;;;;2.80;1.75;;;;;;;34.60;49.28;100609.88;5077933;28;70621;-37
2022/03/21 07:40:28;;;;;;;1.42;1.33;;;;;;;34.64;49.28;100608.28;5074644;28;66056;-37
2022/03/21 07:42:59;;;;;;;3.63;1.63;;;;;;;34.59;49.40;100591.88;5079747;28;69743;-38
2022/03/21 07:48:18;;;;;;;3.13;1.55;;;;;;;34.82;49.09;100595.41;5077541;27;70109;-38
2022/03/21 07:50:50;;;;;;;1.90;1.67;;;;;;;34.88;48.83;100587.06;5078261;27;66236;-37
2022/03/21 07:53:21;;;;;;;2.20;1.98;;;;;;;34.94;48.92;100593.41;5072259;28;69122;-39
2022/03/21 07:55:53;;;;;;;3.15;1.83;;;;;;;34.99;48.72;100590.72;5079063;28;66447;-40
2022/03/21 07:58:23;;;;;;;2.78;1.70;;;;;;;35.03;48.42;100580.13;5077287;27;69157;-37
2022/03/21 08:00:56;;;;;;;1.77;1.52;;;;;;;35.06;48.48;100585.94;5078725;27;66248;-38
2022/03/21 08:03:28;;;;;;;1.88;1.75;;;;;;;35.12;47.92;100584.88;5074323;28;70004;-38
2022/03/21 08:05:59;;;;;;;1.60;1.50;;;;;;;35.17;48.33;100594.22;5073338;28;66197;-39
2022/03/21 08:08:30;;;;;;;2.17;1.53;;;;;;;35.20;48.14;100582.81;5063156;28;69095;-38
2022/03/21 08:11:01;;;;;;;1.88;1.77;;;;;;;35.24;48.21;100578.47;5075928;28;65290;-38
2022/03/21 08:13:32;;;;;;;1.83;1.67;;;;;;;35.28;48.09;100572.25;5075059;28;71366;-38
2022/03/21 08:16:04;;;;;;;2.22;1.55;;;;;;;35.13;47.85;100547.53;5082681;27;65273;-38
2022/03/21 08:18:37;;;;;;;1.55;1.42;;;;;;;35.31;48.06;100560.00;5069562;28;69754;-37
2022/03/21 08:21:09;;;;;;;1.58;1.38;;;;;;;35.36;47.48;100562.78;5079611;27;65990;-37
2022/03/21 08:23:42;;;;;;;4.85;1.75;;;;;;;35.45;47.49;100563.94;5068048;28;70069;-37
2022/03/21 08:26:13;;;;;;;2.28;1.23;;;;;;;35.45;47.76;100553.03;5077438;28;66245;-38
2022/03/21 08:28:45;;;;;;;2.53;2.00;;;;;;;35.39;47.25;100543.16;5061757;28;70013;-38
2022/03/21 08:31:17;;;;;;;1.17;1.02;;;;;;;35.52;47.88;100545.47;5078102;28;66199;-38
2022/03/21 08:33:48;;;;;;;4.30;1.30;;;;;;;35.58;47.59;100554.56;5072984;28;70063;-38
2022/03/21 08:36:19;;;;;;;2.95;1.48;;;;;;;35.58;47.27;100549.91;5073905;28;66350;-38
2022/03/21 08:38:49;;;;;;;1.50;1.40;;;;;;;35.61;47.42;100547.72;5068980;28;68856;-38
2022/03/21 08:41:21;;;;;;;3.75;1.30;;;;;;;35.64;47.12;100547.22;5075066;28;66620;-38
2022/03/21 08:43:52;;;;;;;2.88;1.40;;;;;;;35.67;47.34;100554.91;5081305;27;70664;-38
2022/03/21 08:46:23;;;;;;;1.30;1.20;;;;;;;35.72;47.47;100552.22;5081859;28;65974;-38
2022/03/21 08:51:58;;;;;;;1.52;1.23;;;;;;;35.79;47.47;100567.25;5080358;27;66455;-37
2022/03/21 08:54:29;;;;;;;2.65;1.52;;;;;;;35.84;46.77;100552.81;5080627;27;70074;-38
2022/03/21 08:57:04;;;;;;;1.40;0.93;;;;;;;35.86;46.87;100556.13;5080954;27;66635;-38
2022/03/21 08:59:35;;;;;;;2.08;1.40;;;;;;;35.92;46.63;100555.06;5076581;27;70135;-37
2022/03/21 09:02:05;;;;;;;1.27;0.90;;;;;;;35.97;46.53;100555.09;5080497;27;65774;-38
2022/03/21 09:04:37;;;;;;;1.40;1.08;;;;;;;36.00;46.52;100554.56;5069282;28;70012;-37
2022/03/21 09:07:10;;;;;;;1.83;1.20;;;;;;;35.96;46.32;100555.34;5079047;28;66206;-38
2022/03/21 09:09:41;;;;;;;1.65;1.05;;;;;;;36.09;46.84;100554.13;5067086;28;69525;-38
2022/03/21 09:12:12;;;;;;;1.42;1.13;;;;;;;36.11;46.21;100568.31;5078626;27;66760;-38
2022/03/21 09:14:43;;;;;;;1.73;1.38;;;;;;;36.09;46.42;100576.78;5079841;27;69973;-38
2022/03/21 09:17:14;;;;;;;1.15;0.80;;;;;;;36.18;46.01;100579.81;5074886;27;65260;-37
2022/03/21 09:19:44;;;;;;;1.50;1.20;;;;;;;36.19;46.61;100586.91;5079292;28;70247;-38
2022/03/21 09:22:15;;;;;;;1.08;0.90;;;;;;;36.20;46.30;100586.66;5080457;27;66462;-38
2022/03/21 09:24:46;;;;;;;3.33;1.20;;;;;;;36.22;45.98;100598.16;5078691;27;70430;-38
2022/03/21 09:27:20;;;;;;;1.35;1.20;;;;;;;36.25;46.36;100596.81;5079562;27;66059;-37
2022/03/21 09:29:51;;;;;;;2.40;0.90;;;;;;;36.25;45.69;100607.75;5078283;28;70379;-37
2022/03/21 09:32:21;;;;;;;0.90;0.90;;;;;;;36.26;45.69;100598.44;5080610;27;66064;-37
2022/03/21 09:34:53;;;;;;;2.67;1.35;;;;;;;36.20;46.33;100588.59;5077740;27;69977;-37
2022/03/21 09:37:24;;;;;;;1.00;0.80;;;;;;;36.29;46.17;100613.50;5080920;27;66399;-40
2022/03/21 09:39:55;;;;;;;1.55;0.82;;;;;;;36.27;46.17;100621.13;5066180;28;72382;-38
2022/03/21 09:42:27;;;;;;;1.43;1.20;;;;;;;36.30;46.34;100615.94;5069226;28;66867;-37
2022/03/21 09:44:57;;;;;;;;;;;;;;;36.10;46.66;100626.75;5077199;28;69417;-39
2022/03/21 09:50:17;;;;;;;1.77;1.10;;;;;;;36.30;45.72;100626.88;5078948;27;69322;-38
2022/03/21 09:52:48;;;;;;;1.60;1.02;;;;;;;36.33;46.12;100637.28;5080727;27;65265;-39
2022/03/21 09:55:19;;;;;;;;;;;;;;;36.11;46.15;100644.75;5079721;27;70661;-38
2022/03/21 09:57:50;;;;;;;2.50;1.13;;;;;;;36.31;45.73;100638.63;5079837;27;66852;-37
2022/03/21 10:00:20;;;;;;;1.42;0.95;;;;;;;36.32;45.89;100635.63;5078507;28;70304;-38
2022/03/21 10:02:52;;;;;;;1.75;0.90;;;;;;;36.33;46.40;100642.75;5068860;28;66822;-38
2022/03/21 10:05:56;;;;;;;1.30;0.80;;;;;;;36.25;45.73;100651.44;5077277;28;70242;-38
2022/03/21 10:08:28;;;;;;;2.60;0.90;;;;;;;36.35;46.26;100654.22;5034163;28;66270;-38
2022/03/21 10:11:03;;;;;;;1.25;0.93;;;;;;;36.34;46.10;100660.78;5079273;28;70227;-38
2022/03/21 10:13:43;;;;;;;1.58;1.17;;;;;;;36.33;46.27;100658.28;5077466;27;66171;-38
2022/03/21 10:16:15;;;;;;;1.05;0.95;;;;;;;36.23;45.92;100648.13;5070513;27;69677;-38
2022/03/21 10:18:52;;;;;;;1.05;0.95;;;;;;;36.29;46.39;100668.94;5072256;28;65371;-38
2022/03/21 10:21:26;;;;;;;1.65;1.00;;;;;;;36.28;46.22;100664.56;5079688;28;70186;-39
2022/03/21 10:24:02;;;;;;;2.17;1.08;;;;;;;36.29;46.46;100663.47;5076956;27;66266;-39
2022/03/21 10:26:36;;;;;;;4.20;1.08;;;;;;;36.27;46.15;100670.28;5077942;28;70212;-38
2022/03/21 10:29:10;;;;;;;2.17;1.33;;;;;;;36.23;46.00;100664.53;5077700;27;66485;-39
2022/03/21 10:31:41;;;;;;;1.35;1.00;;;;;;;36.23;46.42;100675.44;5057779;28;69422;-38
2022/03/21 10:34:17;;;;;;;1.53;1.43;;;;;;;36.13;46.18;100661.69;5071909;27;65197;-38
2022/03/21 10:37:07;;;;;;;0.93;0.85;;;;;;;36.09;46.05;100674.25;5076617;28;70200;-38
2022/03/21 10:39:40;;;;;;;2.00;1.30;;;;;;;36.03;46.83;100671.44;5072705;27;66722;-39
2022/03/21 10:42:11;;;;;;;5.63;1.55;;;;;;;36.13;46.76;100681.63;5077778;28;70303;-39
2022/03/21 10:44:53;;;;;;;2.23;2.03;;;;;;;36.10;46.99;100689.53;5072735;28;64992;-39
2022/03/21 10:47:23;;;;;;;3.28;2.05;;;;;;;36.06;47.31;100697.44;5078919;28;69818;-39
2022/03/21 10:50:02;;;;;;;2.25;2.05;;;;;;;35.95;47.36;100691.03;5079363;27;65715;-40
2022/03/21 10:52:33;;;;;;;3.25;1.88;;;;;;;36.06;47.36;100705.63;5074303;28;70023;-39
2022/03/21 10:55:04;;;;;;;2.03;1.83;;;;;;;36.05;47.38;100716.75;5060068;28;66115;-39
2022/03/21 10:57:37;;;;;;;3.45;2.47;;;;;;;36.01;47.74;100711.00;5063795;27;69863;-41
2022/03/21 11:00:28;;;;;;;4.05;2.83;;;;;;;35.89;48.16;100708.44;5067390;28;65061;-40
2022/03/21 11:03:17;;;;;;;3.15;2.85;;;;;;;36.01;48.46;100711.81;5069655;28;69888;-39
2022/03/21 11:05:49;;;;;;;4.93;3.33;;;;;;;35.87;48.71;100694.22;5079579;27;66200;-39
2022/03/21 11:08:19;;;;;;;;;;;;;;;35.71;49.91;100717.00;5074307;27;68905;-39
2022/03/21 11:10:50;;;;;;;4.20;3.30;;;;;;;35.92;49.42;100724.31;5073236;27;66873;-38
2022/03/21 11:13:23;;;;;;;5.05;3.05;;;;;;;35.89;49.59;100730.28;5076865;27;70126;-38
2022/03/21 11:15:54;;;;;;;3.80;2.80;;;;;;;35.85;49.51;100728.31;5076157;27;65910;-39
2022/03/21 11:18:28;;;;;;;3.37;3.00;;;;;;;35.81;49.16;100730.75;5073073;28;70097;-38
2022/03/21 11:21:01;;;;;;;3.40;3.10;;;;;;;35.05;50.47;100687.84;5053760;28;66019;-39
2022/03/21 11:23:32;;;;;;;4.75;3.72;;;;;;;35.07;50.98;100750.31;5072927;27;69836;-40
2022/03/21 11:26:43;;;;;;;3.38;3.10;;;;;;;34.61;51.86;100758.63;5068187;28;64545;-38
2022/03/21 11:29:38;;;;;;;4.47;2.95;;;;;;;34.48;52.23;100770.63;5053589;28;69149;-38
2022/03/21 11:32:09;;;;;;;10.93;2.83;;;;;;;34.32;52.92;100773.34;5058916;28;66038;-39
2022/03/21 11:35:10;;;;;;;5.32;2.85;;;;;;;34.07;53.48;100780.00;5057837;28;68823;-39
2022/03/21 11:37:42;;;;;;;6.60;4.22;;;;;;;34.03;53.41;100778.81;5075886;28;66391;-38
2022/03/21 12:25:56;;;;;;;8.73;3.45;;;;;;;32.79;54.47;100834.34;4988478;28;75014;-35
2022/03/21 12:31:25;;;;;;;5.43;3.25;;;;;;;32.58;51.87;100854.72;4993358;28;70375;-35
2022/03/21 12:34:33;;;;;;;2.83;2.63;;;;;;;32.39;51.32;100859.34;4990458;28;66533;-35
2022/03/21 12:37:09;;;;;;;7.05;2.70;;;;;;;32.36;50.74;100867.94;5005228;28;70372;-35
2022/03/21 12:39:40;;;;;;;6.22;3.15;;;;;;;32.32;50.10;100866.78;5000348;28;66172;-35
2022/03/21 12:42:18;;;;;;;4.30;2.85;;;;;;;32.24;48.97;100881.50;4995407;28;69465;-35
2022/03/21 12:44:48;;;;;;;11.50;3.58;;;;;;;32.18;49.27;100876.97;4987619;28;66483;-36
2022/03/21 12:47:21;;;;;;;12.27;2.67;;;;;;;32.28;48.91;100881.84;4998692;28;70126;-36
2022/03/21 12:49:55;;;;;;;19.02;3.08;;;;;;;32.33;47.96;100876.56;4999665;28;66735;-36
2022/03/21 12:52:28;;;;;;;8.52;2.60;;;;;;;31.93;47.22;100803.00;5004868;28;70096;-35
2022/03/21 12:55:00;;;;;;;7.15;3.13;;;;;;;32.44;47.20;100885.81;4967849;28;66647;-35
2022/03/21 12:57:32;;;;;;;;;;;;;;;32.12;47.10;100898.75;4998021;28;69174;-36
2022/03/21 13:00:19;;;;;;;6.15;2.65;;;;;;;32.36;47.49;100899.72;5006043;28;66343;-36
2022/03/21 13:02:55;;;;;;;5.13;2.90;;;;;;;32.56;50.54;100910.31;5006893;28;69299;-35
2022/03/21 13:11:05;;;;;;;7.60;2.92;;;;;;;32.51;50.71;100929.19;5003586;28;66249;-36